Time;durP1;ratioP1;P1;durP2;ratioP2;P2;SDS_P1;SDS_P2;PMS_P1;PMS_P2;Temp;Humidity;BMP_temperature;BMP_pressure;BME280_temperature;BME280_humidity;BME280_pressure;Samples;Min_cycle;Max_cycle;Signal;HPM_P1;HPM_P2
2022/07/18 00:02:09;;;;;;;5.08;0.80;;;;;;;14.14;77.13;99824.95;1665090;84;21543;-68
2022/07/18 00:04:37;;;;;;;1.30;0.80;;;;;;;14.12;77.13;99824.81;1665315;84;21476;-67
2022/07/18 00:07:03;;;;;;;1.67;1.45;;;;;;;14.09;77.32;99828.69;1665482;84;22566;-67
2022/07/18 00:09:31;;;;;;;1.87;1.60;;;;;;;14.08;77.40;99823.00;1665484;84;21056;-69
2022/07/18 00:11:59;;;;;;;1.85;1.15;;;;;;;14.09;77.51;99827.85;1674664;84;21610;-68
2022/07/18 00:14:25;;;;;;;1.72;1.40;;;;;;;14.11;77.61;99826.66;1675069;84;21067;-69
2022/07/18 00:16:52;;;;;;;3.40;1.50;;;;;;;14.13;77.53;99821.14;1666396;84;20889;-70
2022/07/18 00:19:19;;;;;;;2.45;2.17;;;;;;;14.13;77.47;99822.47;1670977;84;21253;-69
2022/07/18 00:21:45;;;;;;;3.60;2.33;;;;;;;14.14;77.43;99828.13;1667223;84;20933;-67
2022/07/18 00:24:13;;;;;;;4.47;2.67;;;;;;;14.15;77.37;99828.47;1667969;84;20966;-69
2022/07/18 00:26:39;;;;;;;3.27;2.65;;;;;;;14.13;77.32;99821.94;1664248;84;20953;-68
2022/07/18 00:29:06;;;;;;;3.37;2.77;;;;;;;14.14;77.25;99830.80;1665420;84;20941;-69
2022/07/18 00:31:33;;;;;;;2.47;1.67;;;;;;;14.12;77.27;99820.30;1679846;84;21161;-69
2022/07/18 00:34:00;;;;;;;4.00;1.67;;;;;;;14.13;77.39;99826.48;1663698;84;20990;-69
2022/07/18 00:36:27;;;;;;;6.87;1.30;;;;;;;14.12;77.39;99822.14;1666252;84;20992;-67
2022/07/18 00:38:54;;;;;;;1.47;1.00;;;;;;;14.12;77.46;99820.80;1666324;84;20989;-70
2022/07/18 00:41:21;;;;;;;1.05;0.93;;;;;;;14.11;77.48;99814.62;1671599;84;20957;-68
2022/07/18 00:43:47;;;;;;;1.02;0.78;;;;;;;14.13;77.58;99825.16;1665433;84;21361;-68
2022/07/18 00:46:14;;;;;;;1.15;0.80;;;;;;;14.16;77.53;99828.77;1669785;83;20981;-69
2022/07/18 00:48:42;;;;;;;1.72;0.82;;;;;;;14.16;77.40;99832.78;1667193;84;21459;-68
2022/07/18 00:51:10;;;;;;;0.50;0.50;;;;;;;14.15;77.42;99828.47;1668526;84;20933;-69
2022/07/18 00:53:37;;;;;;;1.17;0.70;;;;;;;14.15;77.50;99831.14;1668095;84;20949;-69
2022/07/18 00:56:04;;;;;;;1.70;0.82;;;;;;;14.16;77.55;99830.11;1665361;84;21158;-69
2022/07/18 00:58:31;;;;;;;1.17;0.60;;;;;;;14.18;77.58;99830.24;1664313;84;21979;-67
2022/07/18 01:03:43;;;;;;;0.85;0.60;;;;;;;14.21;77.40;99837.91;1668221;84;21620;-69
2022/07/18 01:06:09;;;;;;;0.60;0.60;;;;;;;14.23;77.43;99840.41;1665563;84;21411;-68
2022/07/18 01:08:37;;;;;;;2.22;0.78;;;;;;;14.23;77.41;99841.75;1668794;84;21525;-67
2022/07/18 01:11:05;;;;;;;1.85;0.70;;;;;;;14.25;77.26;99837.04;1671285;84;21619;-70
2022/07/18 01:13:31;;;;;;;3.52;0.82;;;;;;;14.24;77.29;99838.88;1665362;84;20997;-68
2022/07/18 01:15:59;;;;;;;0.68;0.60;;;;;;;14.23;77.11;99841.22;1666217;84;20997;-66
2022/07/18 01:18:25;;;;;;;1.20;1.02;;;;;;;14.24;77.07;99842.89;1663856;84;20905;-66
2022/07/18 01:20:51;;;;;;;1.37;0.60;;;;;;;14.22;76.88;99843.59;1665393;84;21153;-68
2022/07/18 01:23:18;;;;;;;1.37;0.70;;;;;;;14.18;76.96;99847.63;1668189;84;20963;-69
2022/07/18 01:25:45;;;;;;;0.70;0.70;;;;;;;14.16;77.00;99844.32;1665391;84;21000;-67
2022/07/18 01:28:11;;;;;;;4.10;0.70;;;;;;;14.14;77.14;99838.83;1665395;84;20914;-68
2022/07/18 01:30:38;;;;;;;2.37;0.65;;;;;;;14.15;77.18;99835.16;1674263;84;20942;-68
2022/07/18 01:33:05;;;;;;;1.27;0.60;;;;;;;14.11;77.11;99838.69;1666997;84;21163;-69
2022/07/18 01:35:31;;;;;;;1.60;0.60;;;;;;;14.10;77.28;99841.03;1665181;84;20949;-67
2022/07/18 01:38:00;;;;;;;1.40;0.53;;;;;;;14.09;77.19;99839.89;1665362;84;20846;-69
2022/07/18 01:40:27;;;;;;;0.60;0.50;;;;;;;14.06;77.20;99833.56;1673986;84;20898;-69
2022/07/18 01:42:54;;;;;;;0.50;0.50;;;;;;;14.06;77.36;99828.22;1665288;84;21108;-67
2022/07/18 01:45:21;;;;;;;2.02;0.60;;;;;;;14.07;77.48;99835.24;1665521;83;21137;-69
2022/07/18 01:47:47;;;;;;;0.60;0.60;;;;;;;14.09;77.44;99835.38;1667520;84;20953;-68
2022/07/18 01:50:14;;;;;;;0.98;0.47;;;;;;;14.10;77.35;99838.36;1678639;84;21041;-69
2022/07/18 01:52:40;;;;;;;2.08;0.80;;;;;;;14.10;77.19;99840.23;1669533;84;20977;-67
2022/07/18 01:55:08;;;;;;;1.10;0.70;;;;;;;14.10;77.31;99845.05;1667516;84;21495;-69
2022/07/18 01:57:36;;;;;;;1.87;0.57;;;;;;;14.12;77.20;99851.57;1659469;84;21170;-68
2022/07/18 02:00:06;;;;;;;0.57;0.53;;;;;;;14.09;77.14;99846.58;1673293;84;21499;-68
2022/07/18 02:02:33;;;;;;;0.90;0.60;;;;;;;14.05;76.96;99855.47;1671529;84;20972;-68
2022/07/18 02:05:00;;;;;;;1.12;0.50;;;;;;;14.00;77.00;99859.20;1667443;84;21019;-68
2022/07/18 02:07:31;;;;;;;1.82;1.00;;;;;;;13.98;77.00;99855.05;1667552;84;21000;-68
2022/07/18 02:09:59;;;;;;;1.10;0.50;;;;;;;13.95;77.01;99856.75;1674473;84;21244;-68
2022/07/18 02:12:26;;;;;;;0.60;0.50;;;;;;;13.93;76.93;99862.80;1659499;84;21005;-68
2022/07/18 02:14:52;;;;;;;1.75;0.72;;;;;;;13.88;76.99;99862.52;1667510;84;20957;-68
2022/07/18 02:17:19;;;;;;;1.95;0.78;;;;;;;13.81;77.08;99862.92;1667438;84;20916;-68
2022/07/18 02:19:46;;;;;;;2.80;0.80;;;;;;;13.75;77.26;99862.30;1665258;84;20978;-68
2022/07/18 02:22:13;;;;;;;1.22;0.60;;;;;;;13.70;77.36;99866.03;1670264;84;21161;-68
2022/07/18 02:24:39;;;;;;;0.40;0.37;;;;;;;13.67;77.60;99867.72;1658484;84;21404;-68
2022/07/18 02:27:07;;;;;;;2.80;0.70;;;;;;;13.63;77.74;99869.41;1660639;84;21524;-68
2022/07/18 02:29:35;;;;;;;1.10;0.72;;;;;;;13.63;77.87;99863.76;1660785;84;21168;-68
2022/07/18 02:32:04;;;;;;;0.57;0.57;;;;;;;13.59;77.93;99862.78;1667043;84;21004;-68
2022/07/18 02:34:31;;;;;;;0.57;0.57;;;;;;;13.59;77.96;99865.95;1658445;84;21143;-68
2022/07/18 02:36:58;;;;;;;1.57;0.90;;;;;;;13.57;78.09;99871.48;1658260;84;21440;-68
2022/07/18 02:39:24;;;;;;;2.10;0.80;;;;;;;13.58;78.19;99870.98;1668440;84;21558;-69
2022/07/18 02:41:51;;;;;;;1.00;0.62;;;;;;;13.59;78.31;99875.30;1667867;84;20914;-68
2022/07/18 02:44:18;;;;;;;2.58;0.68;;;;;;;13.60;78.35;99875.64;1674378;84;20866;-68
2022/07/18 02:46:45;;;;;;;0.50;0.50;;;;;;;13.61;78.44;99879.46;1682878;83;21159;-68
2022/07/18 02:49:26;;;;;;;1.30;0.62;;;;;;;13.60;78.58;99876.48;1695695;83;20926;-68
2022/07/18 02:51:40;;;;;;;0.85;0.47;;;;;;;13.65;78.76;99877.27;1702167;82;20902;-69
2022/07/18 02:54:06;;;;;;;1.05;0.68;;;;;;;13.70;78.84;99875.38;1696229;83;21058;-67
2022/07/18 02:56:33;;;;;;;2.00;0.55;;;;;;;13.75;78.88;99883.69;1696243;83;20965;-68
2022/07/18 02:59:00;;;;;;;2.27;0.55;;;;;;;13.82;78.92;99891.34;1696190;83;22031;-69
2022/07/18 03:01:26;;;;;;;0.93;0.42;;;;;;;13.88;78.96;99886.08;1700943;83;20974;-70
2022/07/18 03:03:53;;;;;;;1.12;0.50;;;;;;;13.96;79.00;99888.68;1696416;83;20930;-70
2022/07/18 03:06:19;;;;;;;1.92;0.95;;;;;;;14.08;78.96;99887.70;1696235;83;20898;-68
2022/07/18 03:08:47;;;;;;;1.10;0.50;;;;;;;14.17;78.73;99886.63;1695353;83;20926;-68
2022/07/18 03:11:14;;;;;;;1.25;0.60;;;;;;;14.28;78.57;99891.53;1697773;83;21145;-68
2022/07/18 03:13:40;;;;;;;0.88;0.68;;;;;;;14.38;78.23;99888.10;1696325;83;20846;-68
2022/07/18 03:16:07;;;;;;;0.70;0.45;;;;;;;14.52;77.98;99891.27;1702426;83;20981;-68
2022/07/18 03:18:34;;;;;;;3.92;0.80;;;;;;;14.68;77.44;99888.89;1703394;82;21009;-68
2022/07/18 03:21:01;;;;;;;1.07;0.60;;;;;;;14.90;77.00;99892.47;1694142;83;20914;-68
2022/07/18 03:23:28;;;;;;;3.62;0.72;;;;;;;15.13;76.73;99891.81;1694681;83;21156;-67
2022/07/18 03:25:54;;;;;;;0.95;0.75;;;;;;;15.34;76.13;99897.20;1697276;83;20949;-68
2022/07/18 03:28:21;;;;;;;6.53;0.93;;;;;;;15.59;75.62;99897.16;1696282;83;20906;-68
2022/07/18 03:30:48;;;;;;;1.47;0.62;;;;;;;15.86;74.90;99890.17;1700177;83;21030;-68
2022/07/18 03:33:14;;;;;;;4.78;0.80;;;;;;;16.13;73.83;99893.89;1700473;82;21504;-68
2022/07/18 03:35:41;;;;;;;1.17;0.55;;;;;;;16.44;72.74;99891.11;1696330;83;21487;-68
2022/07/18 03:38:07;;;;;;;2.67;0.72;;;;;;;16.77;71.54;99899.35;1696362;83;21041;-68
2022/07/18 03:40:34;;;;;;;2.00;0.62;;;;;;;17.11;70.71;99899.79;1706062;83;21032;-68
2022/07/18 03:43:01;;;;;;;0.70;0.70;;;;;;;17.46;69.33;99895.97;1691374;83;21010;-68
2022/07/18 03:45:27;;;;;;;2.70;0.88;;;;;;;17.81;67.73;99894.77;1696515;83;20938;-68
2022/07/18 03:47:55;;;;;;;3.85;3.52;;;;;;;18.22;66.33;99897.25;1696352;83;21224;-68
2022/07/18 03:50:21;;;;;;;2.33;2.12;;;;;;;18.68;64.75;99890.43;1694394;83;20859;-68
2022/07/18 03:52:48;;;;;;;4.85;3.80;;;;;;;19.20;62.70;99889.88;1695378;83;20887;-68
2022/07/18 03:55:15;;;;;;;5.62;5.12;;;;;;;19.71;61.05;99883.86;1707975;83;20966;-68
2022/07/18 03:57:42;;;;;;;7.25;4.00;;;;;;;20.21;58.97;99889.55;1703411;83;20883;-68
2022/07/18 04:00:10;;;;;;;5.28;3.05;;;;;;;20.73;57.12;99892.77;1697786;83;21253;-68
2022/07/18 04:02:45;;;;;;;1.87;1.70;;;;;;;21.23;55.62;99890.70;1696099;83;20858;-68
2022/07/18 04:05:12;;;;;;;4.62;1.72;;;;;;;21.71;53.68;99891.46;1696500;83;20906;-68
2022/07/18 04:07:38;;;;;;;5.65;1.45;;;;;;;22.24;52.39;99885.98;1696586;83;20883;-68
2022/07/18 04:10:06;;;;;;;2.08;1.30;;;;;;;22.72;50.46;99885.74;1694898;83;21025;-68
2022/07/18 04:12:34;;;;;;;1.37;1.12;;;;;;;23.20;49.13;99888.88;1696402;83;21271;-68
2022/07/18 04:15:03;;;;;;;1.15;0.95;;;;;;;23.69;47.59;99889.28;1696312;83;20949;-68
2022/07/18 04:17:29;;;;;;;2.75;1.27;;;;;;;24.21;46.24;99891.23;1696348;83;20918;-68
2022/07/18 04:19:56;;;;;;;6.97;1.42;;;;;;;24.77;44.86;99887.42;1694517;83;21006;-68
2022/07/18 04:22:22;;;;;;;1.02;1.02;;;;;;;25.27;43.20;99883.94;1699478;83;20891;-68
2022/07/18 04:24:49;;;;;;;1.80;1.30;;;;;;;25.71;42.15;99886.03;1696397;83;21119;-68
2022/07/18 04:27:16;;;;;;;3.33;1.30;;;;;;;26.16;41.21;99883.72;1696253;83;20942;-68
2022/07/18 04:29:42;;;;;;;1.67;1.05;;;;;;;26.61;39.88;99883.19;1703172;83;20886;-68
2022/07/18 04:32:09;;;;;;;4.33;1.10;;;;;;;27.12;39.11;99889.70;1696350;83;21022;-68
2022/07/18 04:34:35;;;;;;;1.47;1.00;;;;;;;27.58;37.86;99887.11;1696416;83;21519;-68
2022/07/18 04:37:02;;;;;;;1.15;0.95;;;;;;;28.02;36.73;99882.78;1696195;83;21149;-68
2022/07/18 04:39:29;;;;;;;4.30;1.00;;;;;;;28.37;35.73;99883.27;1696172;83;20898;-68
2022/07/18 04:41:56;;;;;;;1.30;0.82;;;;;;;28.80;34.57;99884.55;1695316;83;20994;-68
2022/07/18 04:44:23;;;;;;;1.00;0.90;;;;;;;29.04;34.11;99885.01;1696413;83;21566;-68
2022/07/18 04:46:50;;;;;;;2.12;0.80;;;;;;;29.45;33.61;99887.53;1695869;83;21420;-68
2022/07/18 04:49:16;;;;;;;1.80;0.98;;;;;;;29.84;32.84;99884.27;1696185;83;21260;-68
2022/07/18 04:51:43;;;;;;;3.95;2.10;;;;;;;30.29;32.23;99885.78;1696454;83;20891;-68
2022/07/18 04:54:12;;;;;;;2.80;1.77;;;;;;;30.75;31.68;99884.75;1700630;83;20930;-68
2022/07/18 04:56:38;;;;;;;1.72;1.62;;;;;;;31.08;30.70;99884.63;1687593;83;21001;-68
2022/07/18 04:59:05;;;;;;;1.85;1.17;;;;;;;31.30;29.76;99879.12;1696270;83;20969;-68
2022/07/18 05:01:32;;;;;;;1.65;1.10;;;;;;;31.38;29.45;99881.20;1692297;83;21103;-68
2022/07/18 05:03:58;;;;;;;2.37;1.30;;;;;;;31.47;29.23;99883.00;1696075;83;20971;-68
2022/07/18 05:06:26;;;;;;;2.58;1.57;;;;;;;31.63;29.11;99884.97;1706259;83;20926;-68
2022/07/18 05:08:52;;;;;;;1.57;1.47;;;;;;;31.89;28.98;99883.44;1695502;83;20946;-68
2022/07/18 05:11:19;;;;;;;2.65;1.80;;;;;;;32.26;28.49;99883.38;1694774;83;20930;-68
2022/07/18 05:13:45;;;;;;;3.80;1.77;;;;;;;32.61;27.66;99877.80;1696402;83;21139;-69
2022/07/18 05:16:12;;;;;;;1.87;1.70;;;;;;;32.60;27.50;99877.53;1696361;83;20894;-67
2022/07/18 05:18:40;;;;;;;4.15;2.10;;;;;;;32.71;27.82;99885.86;1696377;83;21081;-69
2022/07/18 05:21:07;;;;;;;2.20;1.77;;;;;;;33.27;27.16;99879.20;1694735;83;20922;-68
2022/07/18 05:23:33;;;;;;;3.40;1.90;;;;;;;33.75;26.62;99879.45;1711468;83;21463;-68
2022/07/18 05:26:00;;;;;;;7.37;1.95;;;;;;;34.17;26.02;99882.28;1696579;83;21147;-68
2022/07/18 05:28:26;;;;;;;4.55;3.08;;;;;;;34.53;25.60;99882.95;1712847;83;20981;-70
2022/07/18 05:30:54;;;;;;;4.30;3.90;;;;;;;35.01;25.26;99885.20;1696644;83;20942;-69
2022/07/18 05:33:21;;;;;;;5.50;3.58;;;;;;;35.30;24.32;99879.09;1701409;83;20936;-68
2022/07/18 05:35:48;;;;;;;5.35;3.20;;;;;;;35.36;24.40;99879.16;1696780;83;21483;-68
2022/07/18 05:38:15;;;;;;;5.30;4.20;;;;;;;35.75;24.04;99880.98;1697353;83;21780;-69
2022/07/18 05:40:41;;;;;;;5.78;3.95;;;;;;;35.88;23.34;99875.84;1696064;83;20918;-67
2022/07/18 05:43:08;;;;;;;10.25;4.55;;;;;;;35.86;23.56;99878.13;1700932;83;20930;-70
2022/07/18 05:45:35;;;;;;;5.20;3.67;;;;;;;36.09;22.90;99878.20;1705991;82;20949;-69
2022/07/18 05:48:01;;;;;;;6.65;3.92;;;;;;;36.31;22.86;99869.67;1696489;83;21469;-70
2022/07/18 05:50:28;;;;;;;5.22;3.45;;;;;;;36.74;22.48;99870.89;1696385;83;21157;-69
2022/07/18 05:52:55;;;;;;;5.90;3.55;;;;;;;36.80;22.14;99874.30;1707765;83;20958;-66
2022/07/18 05:55:22;;;;;;;5.53;2.90;;;;;;;36.87;21.88;99871.80;1695659;83;20871;-71
2022/07/18 05:57:52;;;;;;;4.25;3.22;;;;;;;36.87;22.00;99873.19;1694916;83;20957;-66
2022/07/18 06:00:24;;;;;;;3.92;2.92;;;;;;;37.16;21.84;99873.20;1704458;83;21026;-66
2022/07/18 06:02:56;;;;;;;4.05;3.08;;;;;;;37.59;21.43;99870.95;1702758;83;21283;-65
2022/07/18 06:05:25;;;;;;;2.98;2.67;;;;;;;38.11;20.85;99874.64;1698238;83;21021;-67
2022/07/18 06:07:55;;;;;;;3.35;2.98;;;;;;;38.21;20.39;99870.03;1694869;83;20942;-69
2022/07/18 06:10:25;;;;;;;6.28;2.47;;;;;;;38.15;20.35;99865.84;1697554;83;21014;-68
2022/07/18 06:12:54;;;;;;;2.08;1.87;;;;;;;38.28;20.36;99876.64;1699603;83;20970;-68
2022/07/18 06:15:20;;;;;;;3.80;1.95;;;;;;;38.51;19.58;99871.48;1696304;83;21801;-67
2022/07/18 06:17:52;;;;;;;2.52;1.90;;;;;;;38.51;19.45;99875.65;1703832;83;20901;-68
2022/07/18 06:20:22;;;;;;;2.98;2.37;;;;;;;38.44;19.51;99875.42;1693671;83;21042;-67
2022/07/18 06:22:54;;;;;;;1.90;1.70;;;;;;;38.57;19.44;99870.11;1708802;82;20949;-68
2022/07/18 06:25:23;;;;;;;1.80;1.45;;;;;;;38.67;19.36;99873.81;1695050;83;21385;-67
2022/07/18 06:27:51;;;;;;;1.98;1.22;;;;;;;37.88;19.71;99864.52;1714926;83;21316;-68
2022/07/18 06:30:18;;;;;;;4.55;1.32;;;;;;;36.99;20.47;99871.37;1702415;83;21018;-69
2022/07/18 06:32:46;;;;;;;2.12;1.00;;;;;;;36.36;21.00;99869.49;1695756;83;20997;-69
2022/07/18 06:35:30;;;;;;;3.08;1.32;;;;;;;35.79;21.54;99868.13;1701215;83;22529;-69
2022/07/18 06:37:58;;;;;;;1.55;0.80;;;;;;;35.12;22.42;99873.30;1688620;83;21026;-66
2022/07/18 06:40:25;;;;;;;5.55;1.60;;;;;;;34.82;22.96;99869.45;1693859;83;22528;-73
2022/07/18 06:42:52;;;;;;;1.60;0.90;;;;;;;34.67;23.22;99867.95;1710983;83;21013;-70
2022/07/18 06:45:19;;;;;;;3.27;0.93;;;;;;;34.30;23.41;99862.05;1710703;83;21006;-70
2022/07/18 06:47:46;;;;;;;2.05;0.90;;;;;;;34.06;24.21;99867.38;1720713;83;20926;-67
2022/07/18 06:50:13;;;;;;;1.82;0.60;;;;;;;34.00;24.36;99870.53;1703500;83;20934;-71
2022/07/18 06:52:42;;;;;;;2.27;0.90;;;;;;;34.02;24.43;99873.81;1706040;83;21416;-70
2022/07/18 06:55:10;;;;;;;2.20;1.90;;;;;;;34.04;23.96;99869.61;1707540;83;21523;-72
2022/07/18 06:57:37;;;;;;;4.80;1.95;;;;;;;34.48;23.77;99872.05;1707988;83;21025;-71
2022/07/18 07:00:05;;;;;;;4.35;2.15;;;;;;;35.55;22.73;99863.10;1711484;83;21011;-68
2022/07/18 07:02:32;;;;;;;2.70;2.27;;;;;;;36.58;21.82;99856.56;1704431;83;20998;-67
2022/07/18 07:04:58;;;;;;;6.58;3.05;;;;;;;37.68;20.96;99859.18;1699106;83;21140;-67
2022/07/18 07:07:25;;;;;;;6.67;4.00;;;;;;;38.71;20.13;99857.26;1694990;83;20895;-72
2022/07/18 07:09:52;;;;;;;5.65;3.27;;;;;;;39.34;19.30;99855.73;1694916;83;21402;-72
2022/07/18 07:12:18;;;;;;;8.05;3.62;;;;;;;39.79;18.95;99856.87;1696168;83;20989;-72
2022/07/18 07:14:45;;;;;;;5.58;3.10;;;;;;;40.38;18.65;99854.91;1696365;83;20950;-73
2022/07/18 07:17:12;;;;;;;6.95;3.67;;;;;;;41.00;18.49;99850.48;1696329;83;21069;-73
2022/07/18 07:19:39;;;;;;;5.55;2.98;;;;;;;41.79;17.88;99852.66;1696110;83;20981;-73
2022/07/18 07:22:06;;;;;;;3.10;2.60;;;;;;;42.39;16.78;99857.17;1699609;83;21369;-74
2022/07/18 07:24:32;;;;;;;4.10;1.47;;;;;;;42.39;16.74;99854.38;1706886;83;21048;-74
2022/07/18 07:27:00;;;;;;;1.50;1.10;;;;;;;42.69;16.04;99851.69;1704610;83;20951;-72
2022/07/18 07:29:26;;;;;;;2.62;0.80;;;;;;;42.91;15.89;99855.04;1688661;83;21173;-73
2022/07/18 07:31:53;;;;;;;1.77;0.60;;;;;;;43.09;15.09;99848.33;1696106;83;20942;-73
2022/07/18 07:34:19;;;;;;;1.32;0.70;;;;;;;42.83;15.41;99849.94;1696024;83;20960;-72
2022/07/18 07:36:46;;;;;;;2.15;0.82;;;;;;;42.57;15.43;99848.52;1696340;83;20926;-72
2022/07/18 07:39:13;;;;;;;2.55;0.70;;;;;;;42.18;15.71;99847.83;1696363;83;20938;-73
2022/07/18 07:41:39;;;;;;;0.90;0.60;;;;;;;41.72;16.15;99846.91;1696159;83;21137;-72
2022/07/18 07:44:05;;;;;;;1.72;0.78;;;;;;;41.00;16.68;99849.90;1688833;83;20938;-72
2022/07/18 07:46:32;;;;;;;0.60;0.60;;;;;;;40.53;17.15;99854.70;1696324;83;20922;-75
2022/07/18 07:48:58;;;;;;;1.85;0.93;;;;;;;39.51;17.80;99854.03;1672858;83;20941;-73
2022/07/18 07:51:27;;;;;;;5.08;0.75;;;;;;;38.33;18.49;99856.17;1667464;84;21515;-74
2022/07/18 07:53:53;;;;;;;2.33;0.30;;;;;;;37.89;19.07;99855.01;1676069;84;21240;-73
2022/07/18 07:56:21;;;;;;;1.27;0.50;;;;;;;38.28;18.72;99854.98;1667475;84;21412;-73
2022/07/18 07:58:48;;;;;;;0.57;0.57;;;;;;;38.64;18.32;99856.43;1667484;84;20996;-71
2022/07/18 08:01:17;;;;;;;0.68;0.60;;;;;;;38.98;17.72;99858.55;1667894;84;21024;-74
2022/07/18 08:03:44;;;;;;;5.58;1.12;;;;;;;39.02;17.82;99851.12;1667514;84;20913;-74
2022/07/18 08:06:11;;;;;;;1.62;0.70;;;;;;;39.03;17.88;99854.95;1667506;84;21237;-72
2022/07/18 08:08:39;;;;;;;2.35;0.80;;;;;;;38.45;18.26;99859.56;1667351;84;20993;-73
2022/07/18 08:11:06;;;;;;;0.60;0.60;;;;;;;37.73;18.91;99849.04;1667445;84;20945;-72
2022/07/18 08:13:33;;;;;;;0.75;0.60;;;;;;;37.39;19.61;99856.46;1667418;84;20954;-72
2022/07/18 08:16:00;;;;;;;1.52;0.70;;;;;;;37.23;19.89;99855.47;1667476;84;20996;-73
2022/07/18 08:18:26;;;;;;;0.62;0.50;;;;;;;36.66;20.10;99850.96;1674605;84;21293;-73
2022/07/18 08:20:53;;;;;;;3.08;0.70;;;;;;;35.81;21.11;99854.20;1667444;84;21455;-72
2022/07/18 08:23:19;;;;;;;0.90;0.60;;;;;;;35.24;21.77;99858.26;1670447;84;21013;-71
2022/07/18 08:25:46;;;;;;;0.98;0.65;;;;;;;34.42;22.34;99865.03;1667184;84;20965;-73
2022/07/18 08:28:14;;;;;;;1.65;0.40;;;;;;;33.74;22.78;99865.43;1667612;84;20897;-71
2022/07/18 08:30:40;;;;;;;3.02;1.10;;;;;;;33.12;23.16;99860.22;1667619;84;21179;-71
2022/07/18 08:33:07;;;;;;;1.87;0.62;;;;;;;32.86;23.65;99856.61;1667539;84;21859;-71
2022/07/18 08:35:34;;;;;;;1.60;1.50;;;;;;;32.86;23.58;99857.17;1667860;84;20901;-71
2022/07/18 08:38:01;;;;;;;0.60;0.60;;;;;;;32.80;23.88;99857.04;1669241;84;20945;-70
2022/07/18 08:40:28;;;;;;;1.12;1.02;;;;;;;33.92;23.04;99858.90;1668801;84;20981;-73
2022/07/18 08:42:56;;;;;;;1.15;1.05;;;;;;;35.47;21.65;99845.91;1667654;84;21451;-71
2022/07/18 08:45:24;;;;;;;1.60;0.88;;;;;;;36.94;20.38;99847.16;1676723;84;21511;-74
2022/07/18 08:47:51;;;;;;;1.57;0.90;;;;;;;38.33;19.23;99845.67;1685114;82;21421;-72
2022/07/18 08:50:18;;;;;;;0.90;0.90;;;;;;;39.30;17.71;99843.66;1703614;82;21511;-72
2022/07/18 08:52:45;;;;;;;0.88;0.82;;;;;;;39.71;17.05;99850.27;1712187;82;21515;-72
2022/07/18 08:55:12;;;;;;;1.87;1.35;;;;;;;39.90;16.77;99842.63;1703625;82;21143;-75
2022/07/18 08:57:38;;;;;;;2.37;1.80;;;;;;;40.04;16.27;99843.88;1703632;82;21022;-71
2022/07/18 09:00:07;;;;;;;1.57;1.07;;;;;;;40.05;15.65;99838.52;1703601;82;20965;-71
2022/07/18 09:02:34;;;;;;;1.60;1.00;;;;;;;39.56;15.79;99845.43;1703615;82;21508;-73
2022/07/18 09:05:02;;;;;;;1.90;0.88;;;;;;;38.80;16.30;99849.63;1703645;82;20954;-73
2022/07/18 09:07:34;;;;;;;2.02;0.80;;;;;;;37.94;17.21;99848.42;1703646;82;21861;-73
2022/07/18 09:10:04;;;;;;;0.50;0.50;;;;;;;37.68;17.67;99845.88;1703531;82;20890;-72
2022/07/18 09:12:31;;;;;;;1.10;0.95;;;;;;;38.24;17.38;99852.67;1703694;82;20902;-72
2022/07/18 09:15:02;;;;;;;0.60;0.40;;;;;;;38.77;17.28;99851.73;1703675;82;20950;-73
2022/07/18 09:17:29;;;;;;;1.32;0.42;;;;;;;39.24;16.79;99846.48;1703261;82;20957;-72
2022/07/18 09:20:15;;;;;;;2.17;0.50;;;;;;;39.62;16.63;99852.98;1703605;82;21130;-73
2022/07/18 09:22:40;;;;;;;0.70;0.55;;;;;;;40.30;15.78;99847.53;1722462;82;40250;-72
2022/07/18 09:25:20;;;;;;;1.17;0.53;;;;;;;41.28;14.66;99844.13;1694445;82;20929;-73
2022/07/18 09:27:49;;;;;;;1.67;0.78;;;;;;;41.78;13.91;99850.22;1696637;82;20965;-71
2022/07/18 09:30:25;;;;;;;1.05;0.53;;;;;;;41.06;14.23;99845.66;1703636;82;21624;-73
2022/07/18 09:33:07;;;;;;;0.50;0.30;;;;;;;40.30;14.64;99852.30;1698649;82;21060;-73
2022/07/18 09:35:46;;;;;;;0.50;0.40;;;;;;;39.42;15.22;99854.77;1703794;82;21002;-72
2022/07/18 09:38:20;;;;;;;3.35;0.50;;;;;;;37.65;16.70;99853.48;1703638;82;20950;-71
2022/07/18 09:40:52;;;;;;;0.40;0.40;;;;;;;36.03;18.42;99860.72;1703511;82;21054;-73
2022/07/18 09:43:21;;;;;;;1.50;0.50;;;;;;;34.77;19.51;99861.87;1703685;82;20994;-73
2022/07/18 09:45:56;;;;;;;0.90;0.50;;;;;;;33.79;20.78;99859.78;1703769;82;21759;-71
2022/07/18 09:48:25;;;;;;;1.55;0.60;;;;;;;32.77;21.89;99861.78;1701240;82;20891;-72
2022/07/18 09:51:00;;;;;;;3.02;0.50;;;;;;;31.96;23.33;99865.19;1696418;83;20962;-73
2022/07/18 09:53:32;;;;;;;3.92;0.70;;;;;;;31.46;23.99;99863.52;1709141;82;20934;-72
2022/07/18 09:56:12;;;;;;;1.30;0.75;;;;;;;31.08;24.30;99868.14;1696380;83;21014;-72
2022/07/18 09:58:51;;;;;;;2.37;0.80;;;;;;;30.73;24.89;99861.72;1696607;83;21175;-71
2022/07/18 10:01:17;;;;;;;0.93;0.62;;;;;;;30.42;25.18;99862.63;1696179;83;21472;-71
2022/07/18 10:03:44;;;;;;;3.70;0.62;;;;;;;30.15;25.73;99865.61;1694165;83;20952;-70
2022/07/18 10:06:10;;;;;;;4.17;0.60;;;;;;;29.96;26.61;99864.13;1709190;83;21037;-72
2022/07/18 10:08:37;;;;;;;1.02;0.53;;;;;;;29.67;26.51;99866.02;1696383;83;20994;-72
2022/07/18 10:11:06;;;;;;;0.30;0.30;;;;;;;29.35;26.72;99861.03;1711259;83;20973;-72
2022/07/18 10:13:35;;;;;;;0.90;0.50;;;;;;;29.21;26.87;99861.38;1696261;83;20954;-73
2022/07/18 10:16:02;;;;;;;1.22;0.70;;;;;;;29.20;27.07;99860.55;1713278;83;20910;-73
2022/07/18 10:18:31;;;;;;;1.85;0.90;;;;;;;29.20;27.09;99862.46;1696262;83;20942;-73
2022/07/18 10:21:05;;;;;;;1.95;0.60;;;;;;;29.06;27.39;99855.95;1715237;82;20985;-72
2022/07/18 10:23:39;;;;;;;2.25;0.80;;;;;;;28.97;27.63;99851.61;1698531;83;21678;-71
2022/07/18 10:26:24;;;;;;;0.70;0.60;;;;;;;28.98;27.84;99849.70;1689123;83;20938;-71
2022/07/18 10:29:05;;;;;;;2.50;0.50;;;;;;;28.93;28.33;99847.81;1696607;83;21448;-72
2022/07/18 10:31:34;;;;;;;1.85;0.65;;;;;;;28.98;28.31;99840.94;1696305;83;21727;-71
2022/07/18 10:34:10;;;;;;;1.27;0.60;;;;;;;28.92;28.45;99840.69;1696244;83;20866;-71
2022/07/18 10:36:56;;;;;;;1.70;0.70;;;;;;;28.80;28.32;99834.73;1687430;83;21146;-72
2022/07/18 10:39:34;;;;;;;;;;;;;;;28.62;28.71;99840.83;1688449;83;20954;-73
2022/07/18 10:42:12;;;;;;;1.57;0.70;;;;;;;28.52;29.50;99836.16;1662268;84;20425;-72
2022/07/18 10:44:40;;;;;;;1.42;0.80;;;;;;;28.48;30.05;99841.11;1674657;84;21097;-72
2022/07/18 10:47:19;;;;;;;3.33;0.70;;;;;;;28.39;29.89;99836.78;1707583;83;20985;-71
2022/07/18 10:49:59;;;;;;;2.10;0.62;;;;;;;28.29;30.00;99834.04;1672941;83;21287;-72
2022/07/18 10:52:38;;;;;;;1.17;0.60;;;;;;;28.20;29.96;99828.06;1674292;84;21508;-72
2022/07/18 10:55:19;;;;;;;1.40;0.80;;;;;;;28.00;29.98;99826.95;1672916;84;20969;-72
2022/07/18 10:57:54;;;;;;;6.28;1.20;;;;;;;27.88;30.29;99826.97;1664519;84;21036;-71
2022/07/18 11:00:28;;;;;;;2.05;1.00;;;;;;;27.76;30.69;99824.54;1667634;84;21423;-71
2022/07/18 11:03:12;;;;;;;2.50;0.65;;;;;;;27.64;31.11;99823.18;1667565;84;21539;-71
2022/07/18 11:05:52;;;;;;;0.65;0.60;;;;;;;27.58;30.64;99821.78;1640880;84;20913;-72
2022/07/18 11:08:23;;;;;;;1.80;0.80;;;;;;;27.46;30.50;99819.05;1667461;84;21376;-72
2022/07/18 11:10:57;;;;;;;2.60;1.00;;;;;;;27.25;30.78;99818.72;1667512;84;20929;-71
2022/07/18 11:13:37;;;;;;;0.68;0.65;;;;;;;27.10;31.24;99818.70;1667507;84;20954;-73
2022/07/18 11:16:18;;;;;;;1.35;0.80;;;;;;;27.14;31.52;99815.72;1659334;84;21160;-71
2022/07/18 11:18:52;;;;;;;2.33;0.80;;;;;;;27.33;31.78;99809.99;1670578;84;21008;-71
2022/07/18 11:21:27;;;;;;;2.08;0.80;;;;;;;27.54;31.31;99809.77;1681875;84;21621;-71
2022/07/18 11:24:01;;;;;;;1.98;1.00;;;;;;;27.63;30.58;99801.03;1668908;84;21436;-72
2022/07/18 11:26:28;;;;;;;0.93;0.70;;;;;;;27.59;30.70;99802.12;1667489;84;20897;-72
2022/07/18 11:29:06;;;;;;;1.30;0.70;;;;;;;27.58;31.08;99805.96;1667406;84;21214;-73
2022/07/18 11:31:52;;;;;;;0.90;0.62;;;;;;;27.56;30.87;99800.75;1667439;84;20897;-72
2022/07/18 11:34:37;;;;;;;2.75;0.70;;;;;;;27.50;30.98;99801.04;1664766;84;20997;-72
2022/07/18 11:37:04;;;;;;;0.75;0.72;;;;;;;27.46;31.18;99798.56;1667423;84;20882;-72
2022/07/18 11:39:31;;;;;;;2.20;0.88;;;;;;;27.37;31.01;99793.35;1640871;86;20918;-72
2022/07/18 11:42:01;;;;;;;2.62;0.80;;;;;;;27.28;31.37;99807.26;1667482;84;21176;-72
2022/07/18 11:44:28;;;;;;;1.75;0.72;;;;;;;27.20;31.50;99796.86;1685915;84;20978;-71